createdAt,value
2023-04-16T00:01:18.251Z,31.87
2023-04-16T00:03:53.412Z,37.20
2023-04-16T00:06:28.681Z,46.43
2023-04-16T00:09:03.676Z,34.70
2023-04-16T00:11:38.524Z,34.03
2023-04-16T00:14:13.369Z,37.20
2023-04-16T00:16:48.246Z,32.43
2023-04-16T00:19:23.209Z,32.90
2023-04-16T00:21:58.067Z,44.57
2023-04-16T00:24:32.933Z,30.67
2023-04-16T00:27:08.002Z,39.60
2023-04-16T00:29:42.868Z,36.93
2023-04-16T00:32:17.970Z,33.40
2023-04-16T00:34:52.827Z,32.50
2023-04-16T00:37:27.769Z,33.77
2023-04-16T00:40:02.722Z,35.27
2023-04-16T00:42:38.167Z,35.50
2023-04-16T00:45:13.079Z,29.77
2023-04-16T00:47:48.230Z,32.83
2023-04-16T00:50:23.716Z,33.77
2023-04-16T00:52:58.675Z,32.10
2023-04-16T00:55:34.629Z,31.90
2023-04-16T00:58:09.463Z,34.73
2023-04-16T01:00:44.297Z,32.07
2023-04-16T01:03:19.311Z,33.60
2023-04-16T01:05:54.309Z,28.77
2023-04-16T01:08:29.378Z,37.60
2023-04-16T01:11:05.303Z,29.90
2023-04-16T01:13:40.855Z,32.13
2023-04-16T01:16:15.760Z,23.50
2023-04-16T01:18:50.953Z,33.07
2023-04-16T01:21:26.533Z,27.43
2023-04-16T01:24:05.544Z,33.07
2023-04-16T01:26:41.243Z,31.93
2023-04-16T01:29:16.112Z,26.83
2023-04-16T01:31:51.319Z,30.47
2023-04-16T01:34:47.213Z,28.87
2023-04-16T01:37:22.501Z,29.37
2023-04-16T01:39:57.412Z,27.40
2023-04-16T01:42:32.519Z,29.30
2023-04-16T01:45:08.227Z,27.33
2023-04-16T01:47:43.287Z,27.93
2023-04-16T01:50:19.698Z,34.07
2023-04-16T01:52:54.570Z,30.10
2023-04-16T01:55:29.621Z,26.30
2023-04-16T01:58:04.467Z,25.37
2023-04-16T02:00:42.348Z,26.53
2023-04-16T02:03:18.537Z,24.50
2023-04-16T02:05:53.672Z,23.43
2023-04-16T02:08:28.653Z,23.90
2023-04-16T02:11:03.705Z,25.90
2023-04-16T02:13:38.598Z,26.33
2023-04-16T02:16:13.556Z,23.63
2023-04-16T02:18:58.886Z,27.90
2023-04-16T02:21:37.618Z,39.63
2023-04-16T02:24:12.604Z,26.23
2023-04-16T02:26:48.070Z,27.70
2023-04-16T02:29:25.984Z,29.83
2023-04-16T02:32:07.978Z,28.93
2023-04-16T02:34:43.613Z,25.10
2023-04-16T02:37:19.441Z,24.70
2023-04-16T02:39:54.345Z,27.30
2023-04-16T02:42:29.446Z,28.00
2023-04-16T02:45:04.721Z,30.50
2023-04-16T02:47:39.568Z,35.00
2023-04-16T02:50:14.572Z,25.93
2023-04-16T02:52:51.498Z,36.73
2023-04-16T02:55:26.475Z,29.70
2023-04-16T02:58:01.546Z,29.40
2023-04-16T03:00:38.002Z,32.27
2023-04-16T03:03:13.377Z,33.90
2023-04-16T03:05:48.847Z,26.50
2023-04-16T03:08:24.733Z,28.70
2023-04-16T03:10:59.586Z,32.87
2023-04-16T03:13:34.466Z,31.50
2023-04-16T03:16:09.441Z,31.50
2023-04-16T03:18:44.292Z,31.80
2023-04-16T03:21:19.184Z,30.60
2023-04-16T03:23:55.998Z,29.80
2023-04-16T03:26:30.937Z,35.70
2023-04-16T03:29:06.192Z,33.40
2023-04-16T03:31:41.424Z,34.70
2023-04-16T03:34:16.386Z,30.77
2023-04-16T03:36:51.676Z,33.10
2023-04-16T03:39:26.566Z,40.67
2023-04-16T03:42:02.239Z,30.83
2023-04-16T03:44:37.182Z,29.30
2023-04-16T03:47:12.155Z,39.43
2023-04-16T03:49:47.181Z,33.80
2023-04-16T03:52:22.392Z,43.57
2023-04-16T03:54:57.260Z,37.10
2023-04-16T03:57:35.080Z,42.20
2023-04-16T04:00:15.417Z,38.60
2023-04-16T04:03:01.069Z,36.13
2023-04-16T04:05:43.035Z,39.20
2023-04-16T04:08:20.764Z,36.80
2023-04-16T04:10:55.650Z,38.53
2023-04-16T04:13:32.229Z,35.10
2023-04-16T04:16:07.750Z,35.13
2023-04-16T04:18:44.298Z,32.40
2023-04-16T04:21:19.530Z,41.57
2023-04-16T04:23:56.148Z,41.97
2023-04-16T04:26:31.431Z,35.03
2023-04-16T04:29:06.539Z,34.77
2023-04-16T04:31:41.536Z,49.37
2023-04-16T04:34:16.656Z,38.20
2023-04-16T04:36:52.689Z,43.13
2023-04-16T04:39:28.202Z,38.30
2023-04-16T04:42:03.293Z,49.93
2023-04-16T04:44:38.263Z,41.40
2023-04-16T04:47:14.089Z,60.93
2023-04-16T04:49:49.018Z,59.33
2023-04-16T04:52:23.949Z,36.53
2023-04-16T04:54:59.263Z,43.93
2023-04-16T04:57:34.181Z,45.40
2023-04-16T05:00:10.930Z,44.83
2023-04-16T05:03:01.927Z,50.73
2023-04-16T05:05:37.226Z,49.43
2023-04-16T05:08:12.067Z,51.57
2023-04-16T05:10:46.936Z,39.47
2023-04-16T05:13:22.804Z,36.73
2023-04-16T05:15:58.500Z,43.23
2023-04-16T05:18:33.575Z,52.47
2023-04-16T05:21:08.452Z,35.00
2023-04-16T05:23:43.359Z,39.50
2023-04-16T05:26:18.355Z,49.70
2023-04-16T05:28:53.464Z,50.80
2023-04-16T05:31:28.393Z,60.23
2023-04-16T05:34:03.290Z,56.63
2023-04-16T05:36:38.207Z,80.87
2023-04-16T05:39:13.092Z,63.63
2023-04-16T05:41:48.071Z,55.97
2023-04-16T05:44:22.946Z,73.47
2023-04-16T05:46:57.880Z,73.93
2023-04-16T05:49:32.772Z,60.63
2023-04-16T05:52:07.664Z,66.20
2023-04-16T05:54:42.671Z,65.07
2023-04-16T05:57:17.509Z,63.43
2023-04-16T05:59:52.439Z,72.53
2023-04-16T06:02:27.457Z,76.20
2023-04-16T06:05:02.573Z,69.70
2023-04-16T06:07:37.543Z,72.17
2023-04-16T06:10:12.491Z,93.13
2023-04-16T06:12:47.529Z,65.70
2023-04-16T06:15:22.436Z,78.20
2023-04-16T06:18:00.300Z,100.30
2023-04-16T06:20:36.236Z,70.23
2023-04-16T06:23:11.200Z,73.73
2023-04-16T06:25:46.301Z,104.47
2023-04-16T06:28:21.338Z,69.87
2023-04-16T06:30:56.344Z,101.93
2023-04-16T06:33:32.200Z,85.77
2023-04-16T06:36:07.205Z,75.23
2023-04-16T06:38:42.556Z,68.53
2023-04-16T06:41:17.570Z,72.93
2023-04-16T06:43:52.686Z,81.27
2023-04-16T06:46:27.645Z,109.73
2023-04-16T06:49:02.832Z,105.73
2023-04-16T06:51:37.738Z,75.50
2023-04-16T06:54:12.724Z,84.83
2023-04-16T06:56:47.589Z,62.77
2023-04-16T06:59:22.448Z,70.20
2023-04-16T07:01:57.534Z,80.17
2023-04-16T07:04:32.483Z,72.17
2023-04-16T07:07:07.305Z,66.63
2023-04-16T07:09:42.198Z,93.80
2023-04-16T07:12:17.589Z,91.80
2023-04-16T07:14:52.990Z,92.17
2023-04-16T07:17:27.906Z,70.97
2023-04-16T07:20:02.778Z,72.43
2023-04-16T07:22:37.666Z,68.70
2023-04-16T07:25:12.618Z,89.27
2023-04-16T07:27:47.512Z,59.53
2023-04-16T07:30:22.508Z,74.90
2023-04-16T07:32:57.865Z,76.70
2023-04-16T07:35:32.983Z,53.50
2023-04-16T07:38:07.830Z,60.80
2023-04-16T07:40:42.949Z,63.03
2023-04-16T07:43:17.800Z,57.33
2023-04-16T07:45:52.736Z,63.90
2023-04-16T07:48:27.796Z,50.43
2023-04-16T07:51:02.827Z,56.07
2023-04-16T07:53:37.990Z,52.73
2023-04-16T07:56:12.916Z,58.00
2023-04-16T07:58:48.002Z,59.77
2023-04-16T08:01:22.896Z,53.33
2023-04-16T08:03:58.022Z,48.50
2023-04-16T08:06:36.397Z,48.23
2023-04-16T08:09:11.691Z,48.73
2023-04-16T08:11:47.002Z,57.13
2023-04-16T08:14:21.947Z,48.97
2023-04-16T08:16:59.918Z,45.00
2023-04-16T08:19:35.035Z,46.60
2023-04-16T08:22:09.924Z,60.93
2023-04-16T08:24:44.995Z,45.03
2023-04-16T08:27:20.458Z,50.10
2023-04-16T08:29:55.520Z,48.90
2023-04-16T08:32:30.494Z,48.40
2023-04-16T08:35:06.031Z,41.30
2023-04-16T08:37:41.129Z,43.20
2023-04-16T08:40:16.271Z,56.27
2023-04-16T08:42:59.044Z,43.80
2023-04-16T08:45:36.405Z,46.37
2023-04-16T08:48:12.160Z,44.33
2023-04-16T08:50:49.451Z,43.57
2023-04-16T08:53:43.747Z,44.33
2023-04-16T08:56:21.796Z,46.97
2023-04-16T08:58:58.527Z,60.77
2023-04-16T09:01:35.744Z,57.53
2023-04-16T09:04:11.514Z,59.43
2023-04-16T09:06:48.501Z,67.77
2023-04-16T09:09:23.772Z,53.13
2023-04-16T09:11:59.785Z,49.43
2023-04-16T09:14:36.033Z,44.97
2023-04-16T09:17:12.446Z,44.10
2023-04-16T09:19:47.488Z,52.80
2023-04-16T09:22:22.413Z,50.20
2023-04-16T09:24:57.391Z,49.40
2023-04-16T09:27:33.770Z,46.50
2023-04-16T09:30:27.996Z,42.63
2023-04-16T09:33:22.477Z,39.50
2023-04-16T09:35:57.899Z,45.77
2023-04-16T09:38:56.908Z,36.53
2023-04-16T09:41:39.481Z,42.23
2023-04-16T09:44:14.399Z,36.13
2023-04-16T09:46:49.479Z,37.60
2023-04-16T09:49:27.200Z,41.20
2023-04-16T09:52:02.446Z,35.60
2023-04-16T09:54:38.499Z,36.67
2023-04-16T09:57:13.600Z,39.53
2023-04-16T10:00:02.683Z,42.03
2023-04-16T10:02:43.101Z,40.70
2023-04-16T10:05:20.305Z,33.40
2023-04-16T10:08:01.771Z,39.23
2023-04-16T10:10:36.760Z,39.33
2023-04-16T10:13:14.455Z,33.93
2023-04-16T10:15:50.569Z,36.20
2023-04-16T10:18:25.933Z,41.27
2023-04-16T10:21:02.047Z,39.33
2023-04-16T10:23:38.875Z,42.17
2023-04-16T10:26:13.860Z,40.47
2023-04-16T10:28:49.093Z,41.40
2023-04-16T10:31:25.473Z,37.40
2023-04-16T10:34:01.082Z,43.00
2023-04-16T10:36:40.285Z,37.17
2023-04-16T10:39:22.465Z,38.57
2023-04-16T10:42:12.102Z,35.83
2023-04-16T10:44:47.137Z,34.70
2023-04-16T10:47:26.314Z,34.30
2023-04-16T10:50:01.381Z,31.57
2023-04-16T10:52:36.393Z,33.07
2023-04-16T10:55:17.416Z,35.70
2023-04-16T10:57:53.931Z,28.60
2023-04-16T11:00:28.929Z,29.57
2023-04-16T11:03:05.075Z,33.53
2023-04-16T11:05:47.151Z,28.83
2023-04-16T11:08:22.477Z,34.50
2023-04-16T11:10:59.042Z,27.03
2023-04-16T11:13:36.845Z,31.00
2023-04-16T11:16:16.773Z,26.70
2023-04-16T11:18:52.039Z,20.80
2023-04-16T11:21:27.118Z,21.00
2023-04-16T11:24:02.105Z,18.60
2023-04-16T11:26:36.978Z,21.97
2023-04-16T11:29:15.824Z,21.73
2023-04-16T11:31:54.794Z,22.53
2023-04-16T11:34:30.173Z,20.60
2023-04-16T11:37:05.327Z,23.03
2023-04-16T11:39:53.152Z,19.00
2023-04-16T11:42:30.487Z,22.37
2023-04-16T11:45:06.349Z,21.23
2023-04-16T11:47:52.957Z,18.17
2023-04-16T11:50:29.155Z,25.20
2023-04-16T11:53:06.241Z,21.03
2023-04-16T11:55:45.855Z,17.53
2023-04-16T11:58:22.333Z,19.90
2023-04-16T12:00:59.808Z,22.40
2023-04-16T12:03:46.844Z,20.67
2023-04-16T12:06:24.252Z,16.30
2023-04-16T12:09:01.367Z,19.97
2023-04-16T12:11:42.569Z,18.37
2023-04-16T12:14:17.494Z,18.90
2023-04-16T12:16:52.572Z,15.80
2023-04-16T12:19:27.634Z,12.73
2023-04-16T12:22:02.570Z,13.57
2023-04-16T12:24:37.859Z,13.73
2023-04-16T12:27:13.012Z,15.70
2023-04-16T12:30:07.198Z,13.90
2023-04-16T12:32:44.142Z,13.50
2023-04-16T12:35:33.637Z,13.33
2023-04-16T12:38:08.575Z,13.37
2023-04-16T12:40:43.521Z,12.30
2023-04-16T12:43:19.737Z,13.20
2023-04-16T12:45:54.812Z,12.93
2023-04-16T12:48:29.848Z,13.53
2023-04-16T12:51:06.467Z,10.20
2023-04-16T12:53:41.560Z,15.30
2023-04-16T12:56:16.712Z,13.57
2023-04-16T12:58:51.948Z,11.97
2023-04-16T13:01:26.869Z,9.23
2023-04-16T13:04:02.570Z,11.40
2023-04-16T13:06:38.428Z,12.27
2023-04-16T13:09:13.256Z,12.73
2023-04-16T13:11:48.382Z,12.67
2023-04-16T13:14:23.331Z,13.60
2023-04-16T13:16:58.240Z,11.23
2023-04-16T13:19:33.384Z,12.53
2023-04-16T13:22:09.422Z,11.53
2023-04-16T13:24:44.541Z,13.53
2023-04-16T13:27:20.399Z,15.53
2023-04-16T13:29:55.406Z,15.63
2023-04-16T13:32:30.742Z,14.37
2023-04-16T13:35:06.055Z,13.77
2023-04-16T13:37:40.981Z,14.03
2023-04-16T13:40:16.208Z,18.87
2023-04-16T13:42:51.620Z,16.23
2023-04-16T13:45:27.895Z,20.70
2023-04-16T13:48:03.271Z,17.37
2023-04-16T13:50:38.324Z,18.53
2023-04-16T13:53:13.270Z,17.93
2023-04-16T13:55:49.573Z,19.07
2023-04-16T13:58:25.869Z,21.40
2023-04-16T14:01:01.645Z,16.90
2023-04-16T14:03:38.447Z,21.60
2023-04-16T14:06:14.973Z,17.10
2023-04-16T14:08:49.888Z,19.03
2023-04-16T14:11:24.745Z,16.23
2023-04-16T14:13:59.712Z,21.60
2023-04-16T14:16:35.113Z,18.63
2023-04-16T14:19:10.603Z,18.67
2023-04-16T14:21:45.850Z,17.90
2023-04-16T14:24:20.774Z,23.40
2023-04-16T14:26:55.691Z,20.37
2023-04-16T14:29:31.014Z,20.30
2023-04-16T14:32:06.763Z,19.37
2023-04-16T14:34:41.785Z,24.53
2023-04-16T14:37:17.930Z,19.73
2023-04-16T14:39:52.813Z,18.83
2023-04-16T14:42:27.816Z,23.97
2023-04-16T14:45:06.372Z,25.50
2023-04-16T14:47:45.892Z,24.10
2023-04-16T14:50:21.184Z,24.23
2023-04-16T14:52:56.438Z,22.70
2023-04-16T14:55:32.171Z,23.40
2023-04-16T14:58:07.034Z,24.33
2023-04-16T15:00:42.059Z,25.67
2023-04-16T15:03:17.286Z,23.43
2023-04-16T15:05:55.776Z,33.07
2023-04-16T15:08:31.381Z,29.70
2023-04-16T15:11:06.223Z,29.63
2023-04-16T15:13:41.069Z,31.90
2023-04-16T15:16:16.132Z,30.73
2023-04-16T15:18:51.489Z,32.63
2023-04-16T15:21:27.882Z,41.10
2023-04-16T15:24:03.010Z,29.40
2023-04-16T15:26:38.049Z,32.93
2023-04-16T15:29:13.125Z,31.50
2023-04-16T15:31:48.411Z,37.50
2023-04-16T15:34:23.369Z,42.47
2023-04-16T15:36:58.238Z,33.87
2023-04-16T15:39:33.081Z,29.00
2023-04-16T15:42:08.361Z,36.10
2023-04-16T15:44:43.693Z,38.53
2023-04-16T15:47:18.560Z,35.13
2023-04-16T15:49:53.523Z,36.80
2023-04-16T15:52:28.402Z,39.50
2023-04-16T15:55:04.366Z,41.43
2023-04-16T15:57:39.623Z,42.27
2023-04-16T16:00:17.039Z,40.07
2023-04-16T16:02:52.549Z,43.40
2023-04-16T16:05:27.610Z,42.37
2023-04-16T16:08:02.613Z,44.10
2023-04-16T16:10:37.599Z,49.70
2023-04-16T16:13:14.075Z,46.33
2023-04-16T16:15:50.645Z,39.57
2023-04-16T16:18:25.553Z,56.37
2023-04-16T16:21:00.429Z,48.40
2023-04-16T16:23:35.296Z,41.83
2023-04-16T16:26:10.129Z,49.07
2023-04-16T16:28:45.536Z,47.33
2023-04-16T16:31:20.809Z,51.53
2023-04-16T16:33:55.789Z,46.07
2023-04-16T16:36:32.253Z,52.50
2023-04-16T16:39:07.123Z,56.37
2023-04-16T16:41:42.128Z,53.03
2023-04-16T16:44:17.220Z,48.03
2023-04-16T16:46:52.106Z,51.10
2023-04-16T16:49:26.943Z,49.50
2023-04-16T16:52:01.814Z,46.00
2023-04-16T16:54:36.981Z,45.67
2023-04-16T16:57:12.666Z,44.27
2023-04-16T16:59:48.659Z,41.03
2023-04-16T17:02:23.972Z,41.00
2023-04-16T17:04:59.371Z,44.83
2023-04-16T17:07:34.570Z,47.47
2023-04-16T17:10:19.926Z,49.00
2023-04-16T17:12:54.775Z,45.47
2023-04-16T17:15:29.633Z,52.80
2023-04-16T17:18:04.843Z,48.50
2023-04-16T17:20:39.732Z,50.87
2023-04-16T17:23:14.844Z,42.23
2023-04-16T17:25:50.650Z,49.37
2023-04-16T17:28:26.180Z,46.73
2023-04-16T17:31:01.939Z,42.83
2023-04-16T17:33:38.043Z,43.67
2023-04-16T17:36:13.077Z,46.53
2023-04-16T17:38:47.910Z,51.10
2023-04-16T17:41:23.119Z,50.20
2023-04-16T17:43:57.935Z,47.23
2023-04-16T17:46:32.842Z,56.63
2023-04-16T17:49:07.707Z,52.90
2023-04-16T17:51:44.497Z,48.23
2023-04-16T17:54:19.387Z,40.13
2023-04-16T17:56:54.250Z,48.20
2023-04-16T17:59:29.123Z,44.77
2023-04-16T18:02:04.067Z,50.77
2023-04-16T18:04:39.212Z,47.10
2023-04-16T18:07:14.672Z,45.37
2023-04-16T18:09:49.692Z,47.53
2023-04-16T18:12:24.588Z,52.77
2023-04-16T18:14:59.634Z,45.87
2023-04-16T18:17:34.965Z,54.63
2023-04-16T18:20:11.620Z,47.13
2023-04-16T18:22:46.601Z,43.60
2023-04-16T18:25:32.251Z,59.90
2023-04-16T18:28:09.801Z,51.73
2023-04-16T18:30:44.776Z,41.13
2023-04-16T18:33:48.805Z,46.27
2023-04-16T18:36:14.836Z,43.17
2023-04-16T18:39:00.136Z,47.23
2023-04-16T18:41:36.528Z,43.70
2023-04-16T18:44:11.455Z,49.73
2023-04-16T18:46:46.670Z,41.83
2023-04-16T18:49:21.674Z,50.67
2023-04-16T18:51:56.569Z,46.53
2023-04-16T18:54:31.553Z,61.73
2023-04-16T18:57:06.847Z,50.50
2023-04-16T18:59:41.881Z,45.00
2023-04-16T19:02:16.882Z,45.60
2023-04-16T19:04:51.815Z,48.47
2023-04-16T19:07:26.853Z,48.37
2023-04-16T19:10:05.208Z,45.00
2023-04-16T19:12:40.445Z,51.87
2023-04-16T19:15:15.696Z,39.70
2023-04-16T19:17:51.784Z,48.97
2023-04-16T19:20:27.033Z,43.60
2023-04-16T19:23:05.668Z,43.50
2023-04-16T19:25:40.941Z,47.03
2023-04-16T19:28:16.996Z,40.33
2023-04-16T19:30:53.268Z,44.50
2023-04-16T19:33:28.198Z,43.30
2023-04-16T19:36:03.473Z,44.67
2023-04-16T19:38:38.370Z,37.67
2023-04-16T19:41:13.283Z,40.03
2023-04-16T19:43:48.250Z,42.50
2023-04-16T19:46:23.712Z,40.77
2023-04-16T19:48:58.708Z,44.87
2023-04-16T19:51:33.738Z,39.90
2023-04-16T19:54:09.002Z,44.23
2023-04-16T19:56:43.974Z,50.80
2023-04-16T19:59:19.197Z,61.43
2023-04-16T20:01:54.287Z,58.47
2023-04-16T20:04:29.273Z,51.73
2023-04-16T20:07:04.496Z,53.70
2023-04-16T20:09:39.461Z,55.23
2023-04-16T20:12:14.589Z,65.73
2023-04-16T20:14:49.567Z,59.67
2023-04-16T20:17:24.443Z,57.10
2023-04-16T20:20:00.948Z,50.70
2023-04-16T20:22:42.790Z,69.60
2023-04-16T20:25:21.530Z,63.90
2023-04-16T20:27:56.507Z,61.97
2023-04-16T20:30:38.641Z,67.83
2023-04-16T20:33:13.664Z,62.07
2023-04-16T20:35:50.819Z,61.90
2023-04-16T20:38:25.978Z,74.33
2023-04-16T20:41:10.621Z,58.30
2023-04-16T20:43:45.897Z,58.87
2023-04-16T20:46:25.836Z,50.27
2023-04-16T20:49:01.195Z,69.13
2023-04-16T20:51:38.391Z,61.23
2023-04-16T20:54:13.940Z,65.73
2023-04-16T20:56:50.283Z,68.43
2023-04-16T20:59:25.727Z,53.27
2023-04-16T21:02:00.832Z,66.00
2023-04-16T21:04:35.966Z,57.67
2023-04-16T21:07:10.971Z,50.60
2023-04-16T21:09:45.873Z,60.53
2023-04-16T21:12:21.081Z,68.97
2023-04-16T21:14:57.136Z,48.53
2023-04-16T21:17:32.142Z,52.13
2023-04-16T21:20:10.672Z,62.97
2023-04-16T21:22:45.632Z,51.33
2023-04-16T21:25:20.481Z,52.43
2023-04-16T21:27:55.788Z,50.20
2023-04-16T21:30:30.840Z,54.30
2023-04-16T21:33:06.005Z,50.73
2023-04-16T21:35:41.185Z,45.47
2023-04-16T21:38:16.334Z,41.07
2023-04-16T21:40:53.928Z,47.20
2023-04-16T21:43:30.572Z,49.03
2023-04-16T21:46:05.480Z,42.80
2023-04-16T21:48:40.502Z,52.57
2023-04-16T21:51:15.706Z,54.50
2023-04-16T21:53:50.578Z,47.17
2023-04-16T21:56:25.922Z,56.70
2023-04-16T21:59:00.989Z,51.33
2023-04-16T22:01:35.879Z,42.50
2023-04-16T22:04:12.168Z,42.37
2023-04-16T22:06:47.116Z,43.60
2023-04-16T22:09:24.866Z,41.93
2023-04-16T22:12:00.332Z,50.23
2023-04-16T22:14:35.169Z,44.23
2023-04-16T22:17:10.057Z,36.50
2023-04-16T22:19:44.991Z,42.57
2023-04-16T22:22:21.668Z,41.03
2023-04-16T22:24:56.745Z,35.00
2023-04-16T22:27:31.734Z,37.77
2023-04-16T22:30:08.378Z,35.37
2023-04-16T22:32:43.302Z,40.33
2023-04-16T22:35:18.368Z,37.47
2023-04-16T22:37:53.230Z,47.77
2023-04-16T22:40:30.593Z,43.80
2023-04-16T22:43:05.583Z,38.20
2023-04-16T22:45:41.100Z,36.80
2023-04-16T22:48:16.330Z,40.67
2023-04-16T22:50:51.223Z,34.93
2023-04-16T22:53:27.223Z,38.20
2023-04-16T22:56:02.280Z,34.73
2023-04-16T22:58:37.128Z,33.07
2023-04-16T23:01:12.819Z,36.40
2023-04-16T23:03:47.793Z,35.13
2023-04-16T23:06:22.759Z,31.07
2023-04-16T23:08:57.618Z,35.30
2023-04-16T23:11:32.462Z,37.07
2023-04-16T23:14:08.293Z,36.90
2023-04-16T23:16:43.174Z,33.57
2023-04-16T23:19:18.157Z,36.47
2023-04-16T23:21:53.057Z,37.23
2023-04-16T23:24:27.927Z,41.03
2023-04-16T23:27:02.895Z,33.47
2023-04-16T23:29:37.740Z,33.77
2023-04-16T23:32:12.619Z,33.10
2023-04-16T23:34:47.503Z,31.40
2023-04-16T23:37:22.358Z,41.13
2023-04-16T23:39:57.307Z,35.80
2023-04-16T23:42:32.166Z,36.50
2023-04-16T23:45:08.167Z,33.13
2023-04-16T23:47:43.140Z,36.60
2023-04-16T23:50:18.123Z,37.23
2023-04-16T23:52:52.966Z,40.33
2023-04-16T23:55:27.957Z,39.93
2023-04-16T23:58:02.882Z,39.43
